Time;durP1;ratioP1;P1;durP2;ratioP2;P2;SDS_P1;SDS_P2;PMS_P1;PMS_P2;Temp;Humidity;BMP_temperature;BMP_pressure;BME280_temperature;BME280_humidity;BME280_pressure;Samples;Min_cycle;Max_cycle;Signal;HPM_P1;HPM_P2
2023/05/29 00:00:34;;;;;;;5.30;2.53;;;;;;;15.90;57.95;102218.25;6042480;29;20941;-75
2023/05/29 00:03:55;;;;;;;5.70;2.87;;;;;;;16.05;57.89;102214.16;6041241;29;20241;-74
2023/05/29 00:07:17;;;;;;;3.90;2.20;;;;;;;16.03;58.17;102221.63;6048733;29;20325;-74
2023/05/29 00:10:38;;;;;;;4.20;2.90;;;;;;;16.10;57.97;102222.78;6056788;29;20324;-73
2023/05/29 00:14:00;;;;;;;5.22;2.08;;;;;;;15.91;58.18;102223.59;6049896;29;20237;-74
2023/05/29 00:17:21;;;;;;;5.00;2.38;;;;;;;15.86;58.38;102225.84;6051575;29;20238;-75
2023/05/29 00:20:42;;;;;;;5.10;2.47;;;;;;;15.96;58.40;102228.59;6063079;29;20234;-75
2023/05/29 00:24:03;;;;;;;2.30;2.10;;;;;;;15.91;58.62;102231.75;6048607;29;20245;-75
2023/05/29 00:27:26;;;;;;;4.50;2.37;;;;;;;15.89;58.22;102236.47;6051097;29;20249;-75
2023/05/29 00:30:48;;;;;;;4.32;2.53;;;;;;;15.78;58.68;102238.41;6056227;29;20233;-75
2023/05/29 00:34:10;;;;;;;6.05;2.63;;;;;;;15.60;58.46;102238.19;6044837;29;20300;-75
2023/05/29 00:37:31;;;;;;;7.45;2.75;;;;;;;15.41;59.13;102239.91;6055274;29;20241;-75
2023/05/29 00:40:52;;;;;;;4.68;2.85;;;;;;;15.51;59.69;102243.56;6049818;29;20241;-76
2023/05/29 00:44:13;;;;;;;3.50;2.60;;;;;;;15.30;59.48;102248.13;6038803;29;20226;-75
2023/05/29 00:47:35;;;;;;;7.97;2.83;;;;;;;15.23;60.27;102264.09;6048627;29;20234;-74
2023/05/29 00:50:56;;;;;;;3.73;2.40;;;;;;;14.85;60.76;102267.34;6066209;29;20244;-75
2023/05/29 00:54:22;;;;;;;4.87;2.87;;;;;;;14.77;60.54;102269.84;6051935;29;20351;-75
2023/05/29 00:57:45;;;;;;;10.23;3.77;;;;;;;14.92;60.68;102274.00;6043930;29;20234;-75
2023/05/29 01:01:06;;;;;;;5.87;3.37;;;;;;;14.89;60.17;102279.72;6053331;29;20245;-74
2023/05/29 01:04:28;;;;;;;4.73;2.73;;;;;;;14.79;59.72;102283.31;6042125;29;20233;-77
2023/05/29 01:07:50;;;;;;;6.20;2.77;;;;;;;14.62;60.04;102282.03;6054124;29;20232;-75
2023/05/29 01:11:19;;;;;;;7.73;2.90;;;;;;;14.60;59.63;102281.28;6059810;29;20245;-75
2023/05/29 01:14:52;;;;;;;6.10;2.60;;;;;;;14.54;59.37;102291.78;6049044;29;20248;-76
2023/05/29 01:18:21;;;;;;;16.67;3.63;;;;;;;14.30;59.80;102306.38;6051671;29;20256;-75
2023/05/29 01:22:06;;;;;;;4.17;2.10;;;;;;;14.37;59.76;102307.59;6063631;29;20619;-74
2023/05/29 01:25:47;;;;;;;4.97;2.63;;;;;;;14.15;59.92;102304.88;6061669;29;20241;-74
2023/05/29 01:29:45;;;;;;;7.30;2.73;;;;;;;14.24;59.70;102301.44;6037885;29;20245;-74
2023/05/29 01:33:27;;;;;;;7.10;3.33;;;;;;;14.01;59.97;102298.84;6040486;29;20547;-76
2023/05/29 01:36:48;;;;;;;6.50;2.70;;;;;;;14.10;59.99;102287.25;6066631;29;20229;-75
2023/05/29 01:40:09;;;;;;;9.13;3.07;;;;;;;13.82;60.22;102291.31;6051735;29;20248;-75
2023/05/29 01:43:31;;;;;;;3.00;1.97;;;;;;;13.81;60.36;102289.56;6051448;29;20241;-75
2023/05/29 01:46:52;;;;;;;6.87;3.27;;;;;;;13.89;60.53;102292.56;6060131;29;20260;-74
2023/05/29 01:50:18;;;;;;;5.00;2.77;;;;;;;14.06;59.98;102297.47;6066952;29;20332;-76
2023/05/29 01:53:40;;;;;;;3.30;2.20;;;;;;;14.04;60.30;102307.56;6057890;29;20608;-76
2023/05/29 01:57:02;;;;;;;4.27;2.90;;;;;;;13.92;60.74;102305.84;6049577;29;20513;-75
2023/05/29 02:00:25;;;;;;;7.10;3.40;;;;;;;13.82;60.86;102307.59;6063642;29;20719;-76
2023/05/29 02:03:45;;;;;;;7.10;2.90;;;;;;;13.61;61.39;102306.56;6027991;29;20233;-74
2023/05/29 02:07:07;;;;;;;3.03;2.73;;;;;;;13.65;61.59;102305.34;6054238;29;20256;-76
2023/05/29 02:10:29;;;;;;;6.10;2.83;;;;;;;13.73;61.60;102307.44;6062049;29;20233;-75
2023/05/29 02:13:51;;;;;;;6.50;2.50;;;;;;;13.77;61.35;102303.53;6053307;29;20225;-74
2023/05/29 02:17:12;;;;;;;4.87;2.90;;;;;;;13.59;61.47;102306.69;6048781;29;20237;-76
2023/05/29 02:20:33;;;;;;;7.27;2.60;;;;;;;13.56;61.38;102300.63;6066204;29;20373;-74
2023/05/29 02:23:55;;;;;;;3.33;2.20;;;;;;;13.42;61.99;102309.84;6038129;29;20237;-77
2023/05/29 02:27:16;;;;;;;7.83;2.97;;;;;;;13.31;61.71;102312.53;6044025;29;20260;-76
2023/05/29 02:30:37;;;;;;;5.00;3.00;;;;;;;13.35;62.20;102310.47;6056900;29;20233;-75
2023/05/29 02:33:58;;;;;;;9.50;3.53;;;;;;;13.18;62.54;102314.47;6050436;29;20232;-75
2023/05/29 02:37:19;;;;;;;9.83;3.77;;;;;;;12.86;62.72;102305.19;6039329;29;20520;-75
2023/05/29 02:40:41;;;;;;;6.37;2.93;;;;;;;13.02;63.25;102308.44;6064421;29;20233;-75
2023/05/29 02:44:02;;;;;;;5.97;2.67;;;;;;;12.91;62.70;102304.84;6039180;29;20240;-75
2023/05/29 02:47:23;;;;;;;6.67;2.63;;;;;;;12.88;62.83;102299.66;6032159;29;20232;-76
2023/05/29 02:50:44;;;;;;;4.77;2.90;;;;;;;12.69;63.48;102300.16;6037320;29;20229;-75
2023/05/29 02:54:05;;;;;;;4.87;2.87;;;;;;;12.79;63.66;102302.06;6056949;29;20236;-75
2023/05/29 02:57:27;;;;;;;11.80;5.20;;;;;;;12.58;64.07;102313.63;6048567;29;20237;-76
2023/05/29 03:00:50;;;;;;;5.07;1.90;;;;;;;12.59;63.91;102310.81;6044329;29;20643;-77
2023/05/29 03:04:11;;;;;;;7.13;3.17;;;;;;;12.52;64.15;102314.94;6044852;29;21125;-76
2023/05/29 03:07:32;;;;;;;2.40;2.20;;;;;;;12.68;64.18;102314.69;6047884;29;20249;-76
2023/05/29 03:10:52;;;;;;;7.80;2.73;;;;;;;12.67;63.62;102308.41;6052991;29;20236;-75
2023/05/29 03:14:15;;;;;;;6.93;2.83;;;;;;;12.73;63.64;102307.94;6041928;29;20241;-75
2023/05/29 03:17:38;;;;;;;11.10;3.70;;;;;;;12.76;63.54;102315.84;6048864;29;20228;-73
2023/05/29 03:21:02;;;;;;;3.37;2.40;;;;;;;12.71;63.63;102318.03;6048532;29;20667;-75
2023/05/29 03:24:25;;;;;;;7.23;3.60;;;;;;;12.58;64.21;102311.78;6038794;29;20251;-75
2023/05/29 03:27:46;;;;;;;5.30;2.60;;;;;;;12.53;63.51;102310.41;6041074;29;20228;-74
2023/05/29 03:31:13;;;;;;;9.37;3.47;;;;;;;12.62;64.04;102316.00;6060009;29;20241;-76
2023/05/29 03:34:34;;;;;;;5.77;3.73;;;;;;;12.69;64.23;102311.88;6044613;29;20335;-75
2023/05/29 03:37:59;;;;;;;13.07;3.87;;;;;;;12.75;63.52;102316.81;6060303;29;20724;-75
2023/05/29 03:41:22;;;;;;;5.70;2.77;;;;;;;12.59;63.35;102315.38;6068328;29;20607;-75
2023/05/29 03:44:46;;;;;;;6.03;3.10;;;;;;;12.59;63.48;102327.06;6040487;29;20228;-75
2023/05/29 03:48:08;;;;;;;5.77;3.10;;;;;;;12.63;64.00;102323.16;6036148;29;20324;-75
2023/05/29 03:51:29;;;;;;;8.17;3.23;;;;;;;12.49;64.03;102327.84;6060763;29;20232;-75
2023/05/29 03:54:51;;;;;;;4.27;2.53;;;;;;;12.33;64.67;102330.78;6050922;29;20242;-75
2023/05/29 03:58:12;;;;;;;12.57;4.43;;;;;;;12.48;64.29;102334.22;6053999;29;20222;-76
2023/05/29 04:01:33;;;;;;;6.07;2.47;;;;;;;12.47;64.61;102330.69;6048686;29;20244;-74
2023/05/29 04:04:56;;;;;;;9.17;3.10;;;;;;;12.60;64.63;102336.06;6054151;29;20520;-76
2023/05/29 04:08:16;;;;;;;8.57;3.70;;;;;;;12.59;63.71;102337.00;6060035;29;20237;-75
2023/05/29 04:11:38;;;;;;;5.03;2.50;;;;;;;12.70;64.07;102337.94;6059493;29;20259;-76
2023/05/29 04:14:59;;;;;;;5.43;3.60;;;;;;;12.63;64.12;102347.50;6044830;29;20320;-76
2023/05/29 04:18:21;;;;;;;5.87;3.03;;;;;;;12.64;63.68;102348.38;6056759;29;20503;-76
2023/05/29 04:21:44;;;;;;;5.77;3.50;;;;;;;12.64;64.15;102360.03;6046752;29;20245;-76
2023/05/29 04:25:05;;;;;;;3.37;2.30;;;;;;;12.74;63.88;102363.81;6066148;29;20542;-75
2023/05/29 04:28:27;;;;;;;5.73;3.53;;;;;;;12.74;63.64;102366.53;6048580;29;20237;-75
2023/05/29 04:31:51;;;;;;;8.53;3.73;;;;;;;12.94;63.95;102362.31;6049291;29;20233;-76
2023/05/29 04:35:11;;;;;;;6.27;3.30;;;;;;;12.87;63.44;102361.03;6061599;29;20241;-75
2023/05/29 04:38:39;;;;;;;3.40;2.53;;;;;;;12.95;63.36;102363.19;6041599;29;20229;-76
2023/05/29 04:42:01;;;;;;;8.67;4.67;;;;;;;12.79;63.21;102364.31;6060072;29;20265;-75
2023/05/29 04:45:22;;;;;;;6.93;2.60;;;;;;;12.70;63.53;102369.56;6046502;29;20233;-76
2023/05/29 04:48:43;;;;;;;8.07;3.27;;;;;;;12.79;63.77;102356.19;6053084;29;20230;-76
2023/05/29 04:52:05;;;;;;;6.67;3.57;;;;;;;12.93;63.32;102359.72;6033412;29;20245;-76
2023/05/29 04:55:28;;;;;;;9.33;3.20;;;;;;;13.01;62.98;102365.41;6064366;29;20245;-76
2023/05/29 04:58:50;;;;;;;4.90;2.70;;;;;;;13.04;62.82;102370.63;6050291;29;20616;-77
2023/05/29 05:02:11;;;;;;;5.13;2.77;;;;;;;12.90;63.26;102381.59;6048706;29;20540;-75
2023/05/29 05:05:33;;;;;;;7.43;2.80;;;;;;;13.02;62.67;102377.97;6047606;29;20261;-76
2023/05/29 05:08:55;;;;;;;22.10;2.97;;;;;;;12.93;62.99;102379.53;6038477;29;20234;-75
2023/05/29 05:12:17;;;;;;;4.37;2.60;;;;;;;12.89;62.80;102383.47;6056198;29;20237;-77
2023/05/29 05:15:39;;;;;;;3.50;2.50;;;;;;;13.07;62.79;102387.53;6050988;29;20242;-77
2023/05/29 05:19:00;;;;;;;10.63;4.23;;;;;;;13.11;62.31;102390.84;6056454;29;20237;-76
2023/05/29 05:22:21;;;;;;;8.13;3.93;;;;;;;13.25;62.26;102391.53;6030371;29;20304;-75
2023/05/29 05:25:43;;;;;;;8.57;2.77;;;;;;;13.23;62.53;102392.63;6064447;29;20241;-76
2023/05/29 05:29:06;;;;;;;10.97;4.33;;;;;;;13.30;62.43;102386.66;6053470;29;20241;-76
2023/05/29 05:32:34;;;;;;;6.13;3.43;;;;;;;13.22;62.16;102388.22;6040756;29;20612;-75
2023/05/29 05:36:00;;;;;;;8.97;3.73;;;;;;;12.89;63.17;102391.59;6055630;29;20255;-75
2023/05/29 05:39:21;;;;;;;5.90;3.00;;;;;;;13.18;62.05;102378.59;6051207;29;20238;-75
2023/05/29 05:42:42;;;;;;;7.43;2.90;;;;;;;13.33;62.28;102389.09;6051673;29;20241;-75
2023/05/29 05:46:07;;;;;;;8.23;3.60;;;;;;;13.45;61.71;102388.19;6062049;29;20320;-75
2023/05/29 05:49:30;;;;;;;7.60;3.80;;;;;;;13.47;61.71;102388.06;6038108;29;20240;-76
2023/05/29 05:52:51;;;;;;;8.77;3.80;;;;;;;13.52;61.37;102375.00;6057142;29;20316;-76
2023/05/29 05:56:12;;;;;;;6.67;3.77;;;;;;;13.67;60.89;102381.97;6059105;29;20773;-77
2023/05/29 05:59:33;;;;;;;5.73;3.00;;;;;;;13.66;61.11;102384.81;6056182;29;20229;-75
2023/05/29 06:02:55;;;;;;;7.77;4.13;;;;;;;13.73;60.74;102373.34;6044998;29;20663;-75
2023/05/29 06:06:42;;;;;;;7.07;3.13;;;;;;;13.83;60.11;102384.34;6051370;29;20335;-76
2023/05/29 06:10:04;;;;;;;4.30;3.07;;;;;;;13.64;60.75;102382.22;6043867;29;20401;-75
2023/05/29 06:13:25;;;;;;;7.83;3.17;;;;;;;13.71;60.48;102383.44;6030427;29;20632;-75
2023/05/29 06:16:54;;;;;;;15.47;4.40;;;;;;;13.86;60.25;102393.09;6045398;29;20503;-75
2023/05/29 06:20:16;;;;;;;11.37;3.90;;;;;;;13.97;60.00;102385.00;6062084;29;20245;-74
2023/05/29 06:23:37;;;;;;;10.93;3.57;;;;;;;13.83;59.94;102389.78;6032966;29;20256;-75
2023/05/29 06:26:58;;;;;;;7.87;3.53;;;;;;;13.88;59.33;102393.84;6037605;29;20267;-75
2023/05/29 06:30:20;;;;;;;17.00;4.23;;;;;;;13.87;58.69;102375.84;6046507;29;20713;-74
2023/05/29 06:33:40;;;;;;;6.53;3.67;;;;;;;13.89;59.09;102379.31;6037623;29;20258;-74
2023/05/29 06:37:03;;;;;;;5.70;3.20;;;;;;;14.13;58.83;102382.78;6045989;29;20377;-75
2023/05/29 06:40:23;;;;;;;7.00;3.23;;;;;;;14.16;58.52;102384.41;6064690;29;20312;-75
2023/05/29 06:43:44;;;;;;;12.63;3.77;;;;;;;14.18;58.31;102383.28;6053329;29;20781;-75
2023/05/29 06:47:06;;;;;;;9.00;2.93;;;;;;;14.35;57.69;102385.53;6052752;29;20855;-76
2023/05/29 06:50:27;;;;;;;8.43;3.70;;;;;;;14.33;57.63;102381.25;6044536;29;20277;-76
2023/05/29 06:53:50;;;;;;;10.53;4.10;;;;;;;14.61;57.16;102382.56;6043200;29;20229;-75
2023/05/29 06:57:11;;;;;;;8.87;3.80;;;;;;;14.68;56.71;102383.78;6027625;29;20577;-75
2023/05/29 07:00:33;;;;;;;5.20;3.03;;;;;;;14.47;57.32;102386.41;6053495;29;20241;-76
2023/05/29 07:04:14;;;;;;;12.93;5.00;;;;;;;14.56;57.02;102401.09;6023224;29;20241;-76
2023/05/29 07:07:35;;;;;;;6.33;3.80;;;;;;;14.66;57.26;102399.34;6037915;29;20623;-77
2023/05/29 07:11:00;;;;;;;4.40;3.40;;;;;;;14.68;56.33;102402.78;6054915;29;20229;-75
2023/05/29 07:14:21;;;;;;;6.23;3.00;;;;;;;14.87;55.88;102411.16;6048593;29;20236;-77
2023/05/29 07:17:42;;;;;;;12.97;4.77;;;;;;;14.76;55.39;102401.19;6043384;29;20489;-75
2023/05/29 07:21:11;;;;;;;8.10;3.10;;;;;;;14.73;55.59;102396.00;6048212;29;20228;-76
2023/05/29 07:24:31;;;;;;;6.97;3.83;;;;;;;14.72;55.39;102404.25;6044008;29;20237;-77
2023/05/29 07:27:55;;;;;;;7.07;3.57;;;;;;;14.98;55.78;102414.69;6037281;29;20237;-75
2023/05/29 07:31:17;;;;;;;9.80;3.30;;;;;;;15.32;55.47;102415.47;6057954;29;20237;-76
2023/05/29 07:34:37;;;;;;;4.37;3.53;;;;;;;15.24;55.31;102420.69;6048182;29;20233;-75
2023/05/29 07:37:59;;;;;;;5.97;2.93;;;;;;;15.33;54.96;102419.06;6038443;29;20249;-77
2023/05/29 07:41:20;;;;;;;8.90;3.70;;;;;;;15.33;54.77;102411.78;6062474;29;20504;-76
2023/05/29 07:44:49;;;;;;;3.40;2.73;;;;;;;15.56;54.21;102409.84;6053534;29;20232;-76
2023/05/29 07:48:10;;;;;;;8.70;3.37;;;;;;;15.52;55.08;102416.56;6051825;29;20233;-75
2023/05/29 07:51:32;;;;;;;10.07;4.03;;;;;;;15.71;54.34;102411.25;6045207;29;20249;-76
2023/05/29 07:54:58;;;;;;;9.30;3.47;;;;;;;15.97;53.22;102412.59;6051720;29;21978;-76
2023/05/29 07:58:20;;;;;;;8.17;3.67;;;;;;;15.83;53.74;102418.38;6032833;29;20229;-76
2023/05/29 08:01:44;;;;;;;9.33;3.70;;;;;;;15.98;53.88;102417.88;6050549;29;20237;-77
2023/05/29 08:05:15;;;;;;;8.17;2.67;;;;;;;15.92;52.93;102415.69;6039386;29;20228;-76
2023/05/29 08:08:36;;;;;;;8.27;3.07;;;;;;;15.96;52.29;102425.31;6053020;29;20264;-73
2023/05/29 08:11:57;;;;;;;4.80;2.73;;;;;;;16.16;52.94;102414.56;6043668;29;20237;-77
2023/05/29 08:15:18;;;;;;;13.13;4.00;;;;;;;16.39;52.95;102425.16;6048892;29;20245;-77
2023/05/29 08:18:41;;;;;;;12.30;9.53;;;;;;;17.15;55.05;102419.13;6045030;29;20236;-72
2023/05/29 08:22:02;;;;;;;55.33;40.87;;;;;;;17.97;52.31;102409.53;6053093;29;20706;-71
2023/05/29 08:25:23;;;;;;;19.07;10.60;;;;;;;17.92;52.62;102414.56;6064196;29;20312;-69
2023/05/29 08:28:44;;;;;;;83.03;74.27;;;;;;;18.59;52.86;102410.78;6053974;29;20596;-72
2023/05/29 08:32:05;;;;;;;299.85;273.73;;;;;;;18.76;49.87;102410.84;6049819;29;20530;-71
2023/05/29 08:35:27;;;;;;;73.65;66.97;;;;;;;18.77;49.84;102403.53;6056621;29;20515;-68
2023/05/29 08:38:48;;;;;;;17.17;13.82;;;;;;;18.83;49.22;102397.44;6058138;29;20229;-74
2023/05/29 08:42:14;;;;;;;9.40;5.13;;;;;;;18.43;49.11;102396.88;6054249;29;20241;-74
2023/05/29 08:45:42;;;;;;;9.00;4.20;;;;;;;18.27;49.90;102398.38;6062149;29;20323;-73
2023/05/29 08:49:05;;;;;;;4.93;3.17;;;;;;;17.86;48.62;102411.53;6050850;29;20228;-73
2023/05/29 08:52:30;;;;;;;7.45;3.58;;;;;;;17.82;50.06;102408.25;6046146;29;20272;-73
2023/05/29 08:55:52;;;;;;;5.07;3.35;;;;;;;18.73;49.55;102400.22;6057283;29;20668;-73
2023/05/29 08:59:14;;;;;;;12.68;3.17;;;;;;;17.76;48.87;102414.28;6050077;29;20244;-74
2023/05/29 09:02:35;;;;;;;7.53;2.55;;;;;;;18.12;49.88;102415.38;6045396;29;20240;-74
2023/05/29 09:05:59;;;;;;;7.10;3.47;;;;;;;18.20;48.66;102416.38;6055731;29;20241;-75
2023/05/29 09:09:23;;;;;;;6.13;4.22;;;;;;;18.06;48.63;102407.78;6038287;29;20230;-74
2023/05/29 09:12:43;;;;;;;4.60;2.65;;;;;;;18.22;48.74;102406.16;6052642;29;20264;-74
2023/05/29 09:16:06;;;;;;;6.55;3.10;;;;;;;17.94;49.14;102411.69;6039203;29;20242;-74
2023/05/29 09:19:27;;;;;;;6.70;2.88;;;;;;;18.53;48.58;102411.38;6049605;29;20316;-75
2023/05/29 09:22:54;;;;;;;6.93;3.58;;;;;;;18.89;48.82;102410.50;6049410;29;20659;-74
2023/05/29 09:26:16;;;;;;;3.72;2.67;;;;;;;19.02;47.93;102408.28;6055615;29;20241;-74
2023/05/29 09:30:15;;;;;;;5.93;3.00;;;;;;;18.48;47.76;102411.00;6051618;29;20681;-75
2023/05/29 09:33:55;;;;;;;5.43;2.38;;;;;;;18.67;48.23;102410.91;6052082;29;20237;-73
2023/05/29 09:37:21;;;;;;;5.63;3.17;;;;;;;18.97;48.34;102407.84;6057757;29;20237;-75
2023/05/29 09:40:45;;;;;;;5.93;2.42;;;;;;;19.08;47.97;102400.31;6063138;29;20241;-75
2023/05/29 09:44:10;;;;;;;6.30;2.60;;;;;;;19.27;47.19;102418.47;6052775;29;20249;-75
2023/05/29 09:47:34;;;;;;;6.47;3.15;;;;;;;18.92;47.84;102421.97;6052997;29;20395;-74
2023/05/29 09:50:57;;;;;;;5.65;2.50;;;;;;;19.33;47.36;102406.91;6026296;29;20356;-74
2023/05/29 09:54:19;;;;;;;5.90;2.80;;;;;;;19.10;47.46;102401.03;6049113;29;20233;-74
2023/05/29 09:57:41;;;;;;;6.35;2.45;;;;;;;19.66;46.52;102408.09;6059323;29;20240;-73
2023/05/29 10:01:04;;;;;;;6.78;3.53;;;;;;;20.14;45.74;102407.59;6063716;29;20237;-74
2023/05/29 10:04:25;;;;;;;11.40;3.88;;;;;;;19.89;45.81;102406.56;6052685;29;20349;-73
2023/05/29 10:07:52;;;;;;;9.93;3.97;;;;;;;19.47;46.21;102400.03;6055244;29;20312;-74
2023/05/29 10:11:16;;;;;;;5.13;2.08;;;;;;;19.48;45.80;102404.50;6059331;29;20233;-75
2023/05/29 10:14:37;;;;;;;8.57;4.15;;;;;;;19.52;46.49;102397.72;6046606;29;20241;-75
2023/05/29 10:18:04;;;;;;;4.55;2.58;;;;;;;19.56;46.07;102393.66;6045419;29;22536;-75
2023/05/29 10:21:27;;;;;;;6.00;2.88;;;;;;;19.90;46.08;102389.97;6061813;29;20232;-75
2023/05/29 10:24:51;;;;;;;11.98;8.27;;;;;;;20.03;45.14;102383.22;6042052;29;20256;-72
2023/05/29 10:28:12;;;;;;;4.40;3.22;;;;;;;19.88;44.69;102386.53;6044674;29;20237;-76
2023/05/29 10:31:51;;;;;;;7.28;2.83;;;;;;;20.49;44.81;102377.38;6059704;29;20256;-76
2023/05/29 10:35:18;;;;;;;6.70;2.90;;;;;;;20.60;43.90;102379.81;6057275;29;20757;-74
2023/05/29 10:38:42;;;;;;;3.92;2.40;;;;;;;20.52;44.02;102379.78;6032776;29;20233;-76
2023/05/29 10:42:28;;;;;;;9.13;2.78;;;;;;;20.28;43.28;102379.66;6046869;29;20320;-75
2023/05/29 10:45:52;;;;;;;8.82;3.20;;;;;;;20.52;43.20;102374.31;6061878;29;20233;-75
2023/05/29 10:49:16;;;;;;;4.82;3.30;;;;;;;20.78;43.41;102379.75;6049633;29;20233;-76
2023/05/29 10:52:46;;;;;;;4.22;2.70;;;;;;;20.99;42.12;102380.13;6052698;29;20237;-76
2023/05/29 10:56:16;;;;;;;6.18;3.13;;;;;;;20.96;42.50;102375.00;6065405;29;20849;-76
2023/05/29 10:59:37;;;;;;;5.43;2.38;;;;;;;20.07;43.06;102360.00;6058958;29;20257;-75
2023/05/29 11:03:04;;;;;;;5.00;2.70;;;;;;;20.64;43.53;102373.84;6048450;29;20232;-76
2023/05/29 11:06:25;;;;;;;3.53;2.25;;;;;;;20.84;43.30;102365.38;6067007;29;20229;-75
2023/05/29 11:09:49;;;;;;;11.93;3.05;;;;;;;21.31;43.03;102358.28;6041280;29;20232;-76
2023/05/29 11:13:11;;;;;;;4.90;3.15;;;;;;;21.45;41.93;102343.88;6054932;29;20714;-75
2023/05/29 11:16:38;;;;;;;3.50;1.80;;;;;;;21.53;41.94;102356.78;6062713;29;20663;-76
2023/05/29 11:20:05;;;;;;;3.08;2.60;;;;;;;21.25;41.58;102348.00;6052551;29;20249;-76
2023/05/29 11:23:32;;;;;;;4.10;2.38;;;;;;;21.37;41.27;102347.50;6053241;29;20316;-75
2023/05/29 11:26:54;;;;;;;5.45;2.25;;;;;;;22.23;41.32;102345.03;6065365;29;20266;-76
2023/05/29 11:30:15;;;;;;;4.22;2.38;;;;;;;22.01;40.75;102351.25;6066088;29;20233;-76
2023/05/29 11:33:41;;;;;;;4.60;2.33;;;;;;;22.40;40.93;102338.44;6053545;29;20502;-76
2023/05/29 11:37:03;;;;;;;5.53;2.80;;;;;;;21.95;39.95;102329.97;6056925;29;20230;-75
2023/05/29 11:40:24;;;;;;;4.13;2.42;;;;;;;22.35;40.48;102334.50;6061969;29;20245;-75
2023/05/29 11:43:58;;;;;;;7.82;2.55;;;;;;;22.35;39.86;102335.38;6054342;29;20490;-75
2023/05/29 11:47:19;;;;;;;4.47;1.92;;;;;;;22.68;40.34;102338.84;6053714;29;20229;-76
2023/05/29 11:50:40;;;;;;;6.68;3.05;;;;;;;22.92;39.93;102336.00;6062256;29;20241;-75
2023/05/29 11:54:03;;;;;;;6.72;3.30;;;;;;;22.22;39.88;102337.81;6032949;29;20743;-74
2023/05/29 11:57:26;;;;;;;11.98;5.63;;;;;;;22.65;39.26;102344.72;6048898;29;20229;-75
2023/05/29 12:00:50;;;;;;;8.18;4.45;;;;;;;22.61;39.72;102346.97;6060430;29;20257;-77
2023/05/29 12:04:17;;;;;;;70.70;48.70;;;;;;;22.78;40.07;102323.00;6047096;29;20241;-75
2023/05/29 12:07:38;;;;;;;21.17;13.75;;;;;;;22.45;39.20;102327.75;6057410;29;20320;-76
2023/05/29 12:11:00;;;;;;;19.15;15.02;;;;;;;22.30;39.98;102336.94;6050269;29;20240;-76
2023/05/29 12:14:21;;;;;;;4.90;2.80;;;;;;;22.14;38.77;102322.22;6048521;29;20245;-75
2023/05/29 12:17:43;;;;;;;7.82;3.40;;;;;;;22.15;38.67;102331.31;6040625;29;24963;-75
2023/05/29 12:21:04;;;;;;;17.67;7.15;;;;;;;22.72;38.89;102334.72;6060518;29;20237;-78
2023/05/29 12:24:26;;;;;;;26.40;13.82;;;;;;;23.13;38.27;102327.94;6053823;29;20237;-76
2023/05/29 12:27:49;;;;;;;17.30;8.95;;;;;;;23.32;37.64;102321.09;6054871;29;20620;-78
2023/05/29 12:31:10;;;;;;;11.18;5.72;;;;;;;23.52;38.98;102317.69;6067832;29;20256;-75
2023/05/29 12:34:36;;;;;;;8.80;5.15;;;;;;;23.88;38.40;102334.38;6053838;29;20571;-75
2023/05/29 12:37:58;;;;;;;3.50;2.30;;;;;;;24.12;37.37;102319.50;6049355;29;20308;-75
2023/05/29 12:41:26;;;;;;;4.13;2.60;;;;;;;23.68;37.04;102331.28;6058559;29;20229;-76
2023/05/29 12:44:49;;;;;;;3.30;1.70;;;;;;;22.98;38.01;102318.75;6050804;29;20236;-76
2023/05/29 12:48:11;;;;;;;4.10;2.65;;;;;;;23.89;38.48;102316.78;6047440;29;20504;-78
2023/05/29 12:51:31;;;;;;;6.32;2.10;;;;;;;24.93;37.25;102298.13;6043736;29;20612;-75
2023/05/29 12:54:53;;;;;;;2.58;2.08;;;;;;;24.07;35.72;102295.28;6048570;29;20225;-75
2023/05/29 12:58:15;;;;;;;11.38;8.57;;;;;;;25.06;36.66;102297.41;6050091;29;20237;-75
2023/05/29 13:01:38;;;;;;;5.25;3.50;;;;;;;25.75;36.15;102299.34;6059798;29;20237;-78
2023/05/29 13:04:59;;;;;;;4.38;2.33;;;;;;;26.88;33.99;102297.91;6041928;29;20241;-76
2023/05/29 13:08:20;;;;;;;8.43;2.92;;;;;;;28.50;32.11;102300.00;6044134;29;20821;-76
2023/05/29 13:11:41;;;;;;;4.22;2.15;;;;;;;29.49;30.05;102281.75;6059921;29;20762;-76
2023/05/29 13:15:02;;;;;;;10.63;2.65;;;;;;;30.87;27.74;102272.75;6048551;29;20578;-75
2023/05/29 13:18:25;;;;;;;7.05;2.80;;;;;;;29.31;28.50;102284.44;6054794;29;20236;-76
2023/05/29 13:21:49;;;;;;;3.25;2.13;;;;;;;30.10;28.36;102280.97;6057169;29;20300;-76
2023/05/29 13:25:12;;;;;;;2.65;1.88;;;;;;;30.23;27.63;102286.41;6061487;29;20781;-76
2023/05/29 13:28:34;;;;;;;4.45;2.15;;;;;;;31.29;27.42;102291.16;6045269;29;20237;-75
2023/05/29 13:31:54;;;;;;;9.57;2.92;;;;;;;29.02;28.01;102283.09;6051016;29;20297;-74
2023/05/29 13:35:17;;;;;;;6.88;2.80;;;;;;;28.76;29.14;102297.16;6062395;29;20276;-75
2023/05/29 13:38:38;;;;;;;4.43;1.90;;;;;;;29.53;28.00;102301.59;6055619;29;20237;-75
2023/05/29 13:42:01;;;;;;;3.83;2.17;;;;;;;29.35;28.06;102285.72;6060153;29;20232;-75
2023/05/29 13:45:21;;;;;;;9.43;2.53;;;;;;;27.58;28.94;102288.22;6062234;29;20233;-75
2023/05/29 13:48:42;;;;;;;7.40;2.08;;;;;;;28.33;29.03;102294.09;6056198;29;20319;-75
2023/05/29 13:52:05;;;;;;;2.55;1.60;;;;;;;28.57;28.60;102294.47;6050636;29;20789;-75
2023/05/29 13:55:26;;;;;;;3.58;2.22;;;;;;;28.21;29.05;102294.97;6059220;29;20236;-75
2023/05/29 13:58:46;;;;;;;5.80;2.30;;;;;;;28.09;29.11;102280.94;6047335;29;20237;-75
2023/05/29 14:02:08;;;;;;;3.50;2.53;;;;;;;27.89;29.52;102287.56;6043037;29;20265;-74
2023/05/29 14:05:29;;;;;;;3.25;1.63;;;;;;;28.15;30.41;102268.97;6060474;29;20321;-74
2023/05/29 14:08:51;;;;;;;4.15;2.00;;;;;;;26.97;30.60;102276.41;6054605;29;20241;-77
2023/05/29 14:12:12;;;;;;;4.07;2.03;;;;;;;26.75;30.89;102275.72;6056026;29;20681;-76
2023/05/29 14:15:33;;;;;;;4.90;2.67;;;;;;;26.61;31.18;102275.84;6068476;29;20320;-76
2023/05/29 14:18:54;;;;;;;5.10;2.13;;;;;;;26.20;31.40;102266.72;6044751;29;20233;-76
2023/05/29 14:22:15;;;;;;;2.50;2.30;;;;;;;26.30;32.01;102270.81;6055531;29;20496;-76
2023/05/29 14:25:37;;;;;;;2.67;1.50;;;;;;;26.21;32.34;102274.81;6062874;29;20236;-76
2023/05/29 14:28:58;;;;;;;1.90;1.73;;;;;;;26.24;32.64;102279.94;6053441;29;20225;-76
2023/05/29 14:32:19;;;;;;;4.30;2.20;;;;;;;26.13;31.67;102270.31;6054421;29;20237;-76
2023/05/29 14:35:40;;;;;;;2.88;1.67;;;;;;;26.77;32.47;102267.19;6057182;29;20260;-77
2023/05/29 14:39:01;;;;;;;8.07;2.20;;;;;;;26.14;32.08;102277.53;6043669;29;20276;-78
2023/05/29 14:42:23;;;;;;;13.98;2.55;;;;;;;25.41;32.94;102273.56;6047631;29;20254;-76
2023/05/29 14:45:44;;;;;;;5.97;2.38;;;;;;;25.45;32.12;102269.38;6061448;29;20249;-77
2023/05/29 14:49:05;;;;;;;3.83;1.77;;;;;;;24.99;32.20;102266.13;6047175;29;20245;-76
2023/05/29 14:52:26;;;;;;;4.32;1.80;;;;;;;24.90;32.43;102267.31;6024988;29;20241;-76
2023/05/29 14:55:47;;;;;;;4.00;2.50;;;;;;;25.62;33.38;102265.22;6063787;29;20526;-76
2023/05/29 14:59:09;;;;;;;7.72;2.75;;;;;;;25.32;32.60;102259.84;6050026;29;20236;-74
2023/05/29 15:02:30;;;;;;;3.88;1.83;;;;;;;25.33;33.06;102257.97;6050178;29;20241;-75
2023/05/29 15:05:51;;;;;;;8.85;2.47;;;;;;;25.38;32.55;102256.31;6064612;29;20233;-76
2023/05/29 15:09:12;;;;;;;3.38;2.28;;;;;;;25.08;33.18;102256.66;6047913;29;20248;-77
2023/05/29 15:12:33;;;;;;;2.75;1.98;;;;;;;25.59;32.85;102269.28;6048069;29;20689;-75
2023/05/29 15:15:55;;;;;;;5.82;2.75;;;;;;;25.24;32.45;102254.47;6054104;29;20612;-76
2023/05/29 15:19:16;;;;;;;4.78;2.30;;;;;;;25.37;33.03;102249.06;6047034;29;20237;-76
2023/05/29 15:22:37;;;;;;;3.28;2.20;;;;;;;25.44;33.18;102251.06;6051496;29;20619;-75
2023/05/29 15:25:58;;;;;;;3.25;2.05;;;;;;;25.14;33.42;102250.34;6057741;29;20237;-76
2023/05/29 15:29:19;;;;;;;3.05;2.15;;;;;;;25.37;33.60;102250.97;6054417;29;20323;-76
2023/05/29 15:32:43;;;;;;;4.32;3.03;;;;;;;25.09;33.35;102250.97;6042777;29;20272;-76
2023/05/29 15:36:05;;;;;;;4.43;1.80;;;;;;;24.96;34.65;102261.00;6061726;29;20619;-76
2023/05/29 15:39:26;;;;;;;6.10;2.03;;;;;;;23.24;37.97;102261.44;6050295;29;20237;-76
2023/05/29 15:42:47;;;;;;;6.75;2.25;;;;;;;24.59;36.85;102257.38;6053832;29;20240;-77